sensor_id;sensor_type;location;lat;lon;timestamp;P1;durP1;ratioP1;P2;durP2;ratioP2
20629;SDS011;17386;43.846;25.950;2022-11-02T00:00:50;14.60;;;7.50;;
20629;SDS011;17386;43.846;25.950;2022-11-02T00:03:16;15.95;;;7.15;;
20629;SDS011;17386;43.846;25.950;2022-11-02T00:05:41;21.45;;;8.60;;
20629;SDS011;17386;43.846;25.950;2022-11-02T00:08:07;19.15;;;9.25;;
20629;SDS011;17386;43.846;25.950;2022-11-02T00:10:32;18.90;;;7.78;;
20629;SDS011;17386;43.846;25.950;2022-11-02T00:12:58;16.75;;;7.80;;
20629;SDS011;17386;43.846;25.950;2022-11-02T00:15:24;14.05;;;7.05;;
20629;SDS011;17386;43.846;25.950;2022-11-02T00:17:57;16.55;;;8.15;;
20629;SDS011;17386;43.846;25.950;2022-11-02T00:20:25;13.32;;;7.18;;
20629;SDS011;17386;43.846;25.950;2022-11-02T00:22:51;15.73;;;7.60;;
20629;SDS011;17386;43.846;25.950;2022-11-02T00:25:21;16.33;;;7.70;;
20629;SDS011;17386;43.846;25.950;2022-11-02T00:27:49;11.95;;;7.65;;
20629;SDS011;17386;43.846;25.950;2022-11-02T00:30:15;15.77;;;8.18;;
20629;SDS011;17386;43.846;25.950;2022-11-02T00:32:40;15.35;;;7.38;;
20629;SDS011;17386;43.846;25.950;2022-11-02T00:35:06;15.38;;;7.72;;
20629;SDS011;17386;43.846;25.950;2022-11-02T00:37:31;15.45;;;7.50;;
20629;SDS011;17386;43.846;25.950;2022-11-02T00:39:57;13.48;;;7.60;;
20629;SDS011;17386;43.846;25.950;2022-11-02T00:42:22;13.57;;;7.53;;
20629;SDS011;17386;43.846;25.950;2022-11-02T00:44:48;15.23;;;7.35;;
20629;SDS011;17386;43.846;25.950;2022-11-02T00:47:13;13.75;;;7.57;;
20629;SDS011;17386;43.846;25.950;2022-11-02T00:49:38;15.68;;;7.40;;
20629;SDS011;17386;43.846;25.950;2022-11-02T00:52:04;16.55;;;7.68;;
20629;SDS011;17386;43.846;25.950;2022-11-02T00:54:29;17.02;;;7.63;;
20629;SDS011;17386;43.846;25.950;2022-11-02T00:56:55;14.88;;;7.45;;
20629;SDS011;17386;43.846;25.950;2022-11-02T00:59:20;18.55;;;7.90;;
20629;SDS011;17386;43.846;25.950;2022-11-02T01:01:46;13.80;;;7.70;;
20629;SDS011;17386;43.846;25.950;2022-11-02T01:04:13;14.55;;;7.43;;
20629;SDS011;17386;43.846;25.950;2022-11-02T01:06:39;13.70;;;6.57;;
20629;SDS011;17386;43.846;25.950;2022-11-02T01:09:05;13.45;;;6.63;;
20629;SDS011;17386;43.846;25.950;2022-11-02T01:11:30;14.07;;;7.05;;
20629;SDS011;17386;43.846;25.950;2022-11-02T01:13:56;12.57;;;7.10;;
20629;SDS011;17386;43.846;25.950;2022-11-02T01:16:21;12.43;;;6.60;;
20629;SDS011;17386;43.846;25.950;2022-11-02T01:18:50;16.95;;;7.10;;
20629;SDS011;17386;43.846;25.950;2022-11-02T01:21:18;18.05;;;7.57;;
20629;SDS011;17386;43.846;25.950;2022-11-02T01:23:44;12.18;;;6.97;;
20629;SDS011;17386;43.846;25.950;2022-11-02T01:26:10;15.65;;;7.47;;
20629;SDS011;17386;43.846;25.950;2022-11-02T01:28:36;12.95;;;6.75;;
20629;SDS011;17386;43.846;25.950;2022-11-02T01:31:02;12.60;;;7.00;;
20629;SDS011;17386;43.846;25.950;2022-11-02T01:33:27;14.38;;;6.85;;
20629;SDS011;17386;43.846;25.950;2022-11-02T01:35:53;12.27;;;5.97;;
20629;SDS011;17386;43.846;25.950;2022-11-02T01:38:19;13.95;;;7.30;;
20629;SDS011;17386;43.846;25.950;2022-11-02T01:40:45;13.10;;;6.35;;
20629;SDS011;17386;43.846;25.950;2022-11-02T01:43:20;17.23;;;7.10;;
20629;SDS011;17386;43.846;25.950;2022-11-02T01:45:46;14.60;;;7.57;;
20629;SDS011;17386;43.846;25.950;2022-11-02T01:48:16;13.95;;;6.57;;
20629;SDS011;17386;43.846;25.950;2022-11-02T01:50:45;15.55;;;6.97;;
20629;SDS011;17386;43.846;25.950;2022-11-02T01:53:11;15.85;;;7.00;;
20629;SDS011;17386;43.846;25.950;2022-11-02T01:55:36;13.20;;;7.35;;
20629;SDS011;17386;43.846;25.950;2022-11-02T01:58:05;12.13;;;7.20;;
20629;SDS011;17386;43.846;25.950;2022-11-02T02:00:33;12.98;;;7.47;;
20629;SDS011;17386;43.846;25.950;2022-11-02T02:03:08;13.75;;;7.72;;
20629;SDS011;17386;43.846;25.950;2022-11-02T02:05:41;13.50;;;7.07;;
20629;SDS011;17386;43.846;25.950;2022-11-02T02:08:10;14.35;;;7.13;;
20629;SDS011;17386;43.846;25.950;2022-11-02T02:10:40;15.48;;;7.38;;
20629;SDS011;17386;43.846;25.950;2022-11-02T02:13:05;18.30;;;7.50;;
20629;SDS011;17386;43.846;25.950;2022-11-02T02:18:35;17.80;;;7.95;;
20629;SDS011;17386;43.846;25.950;2022-11-02T02:27:11;15.98;;;7.90;;
20629;SDS011;17386;43.846;25.950;2022-11-02T02:32:45;20.85;;;8.05;;
20629;SDS011;17386;43.846;25.950;2022-11-02T02:38:10;15.68;;;8.85;;
20629;SDS011;17386;43.846;25.950;2022-11-02T02:40:40;15.65;;;8.02;;
20629;SDS011;17386;43.846;25.950;2022-11-02T02:43:10;12.90;;;7.57;;
20629;SDS011;17386;43.846;25.950;2022-11-02T02:45:45;16.30;;;7.85;;
20629;SDS011;17386;43.846;25.950;2022-11-02T02:48:17;15.88;;;7.82;;
20629;SDS011;17386;43.846;25.950;2022-11-02T02:50:54;15.35;;;7.93;;
20629;SDS011;17386;43.846;25.950;2022-11-02T02:53:45;15.95;;;7.28;;
20629;SDS011;17386;43.846;25.950;2022-11-02T02:56:14;14.32;;;7.78;;
20629;SDS011;17386;43.846;25.950;2022-11-02T02:59:01;16.25;;;7.45;;
20629;SDS011;17386;43.846;25.950;2022-11-02T03:01:30;17.50;;;7.90;;
20629;SDS011;17386;43.846;25.950;2022-11-02T03:03:56;19.25;;;8.27;;
20629;SDS011;17386;43.846;25.950;2022-11-02T03:06:26;17.05;;;8.57;;
20629;SDS011;17386;43.846;25.950;2022-11-02T03:17:18;18.30;;;8.80;;
20629;SDS011;17386;43.846;25.950;2022-11-02T03:28:11;17.92;;;8.45;;
20629;SDS011;17386;43.846;25.950;2022-11-02T03:30:44;19.15;;;8.65;;
20629;SDS011;17386;43.846;25.950;2022-11-02T03:33:18;23.02;;;9.73;;
20629;SDS011;17386;43.846;25.950;2022-11-02T03:36:24;19.65;;;8.82;;
20629;SDS011;17386;43.846;25.950;2022-11-02T03:39:03;20.15;;;9.38;;
20629;SDS011;17386;43.846;25.950;2022-11-02T03:41:32;19.67;;;9.10;;
20629;SDS011;17386;43.846;25.950;2022-11-02T03:44:01;17.70;;;9.18;;
20629;SDS011;17386;43.846;25.950;2022-11-02T03:46:31;19.08;;;8.52;;
20629;SDS011;17386;43.846;25.950;2022-11-02T03:49:01;14.85;;;8.15;;
20629;SDS011;17386;43.846;25.950;2022-11-02T03:51:29;16.80;;;8.23;;
20629;SDS011;17386;43.846;25.950;2022-11-02T03:54:01;21.45;;;9.02;;
20629;SDS011;17386;43.846;25.950;2022-11-02T03:56:54;22.17;;;9.65;;
20629;SDS011;17386;43.846;25.950;2022-11-02T03:59:21;15.02;;;7.80;;
20629;SDS011;17386;43.846;25.950;2022-11-02T04:01:47;17.55;;;8.02;;
20629;SDS011;17386;43.846;25.950;2022-11-02T04:04:15;15.57;;;8.27;;
20629;SDS011;17386;43.846;25.950;2022-11-02T04:06:41;17.20;;;9.10;;
20629;SDS011;17386;43.846;25.950;2022-11-02T04:09:07;17.27;;;7.57;;
20629;SDS011;17386;43.846;25.950;2022-11-02T04:11:34;15.52;;;7.97;;
20629;SDS011;17386;43.846;25.950;2022-11-02T04:14:19;18.08;;;8.48;;
20629;SDS011;17386;43.846;25.950;2022-11-02T04:17:03;18.23;;;8.18;;
20629;SDS011;17386;43.846;25.950;2022-11-02T04:19:48;14.10;;;8.25;;
20629;SDS011;17386;43.846;25.950;2022-11-02T04:22:14;16.75;;;9.70;;
20629;SDS011;17386;43.846;25.950;2022-11-02T04:24:58;18.10;;;8.95;;
20629;SDS011;17386;43.846;25.950;2022-11-02T04:27:42;21.52;;;8.80;;
20629;SDS011;17386;43.846;25.950;2022-11-02T04:30:09;18.00;;;8.90;;
20629;SDS011;17386;43.846;25.950;2022-11-02T04:32:38;18.98;;;8.23;;
20629;SDS011;17386;43.846;25.950;2022-11-02T04:35:29;19.88;;;9.20;;
20629;SDS011;17386;43.846;25.950;2022-11-02T04:37:56;17.60;;;8.95;;
20629;SDS011;17386;43.846;25.950;2022-11-02T04:40:40;19.35;;;8.88;;
20629;SDS011;17386;43.846;25.950;2022-11-02T04:43:06;17.00;;;9.32;;
20629;SDS011;17386;43.846;25.950;2022-11-02T04:45:32;20.17;;;9.55;;
20629;SDS011;17386;43.846;25.950;2022-11-02T04:48:01;18.58;;;8.52;;
20629;SDS011;17386;43.846;25.950;2022-11-02T04:50:28;17.60;;;8.80;;
20629;SDS011;17386;43.846;25.950;2022-11-02T04:52:57;13.73;;;8.02;;
20629;SDS011;17386;43.846;25.950;2022-11-02T04:55:24;19.33;;;8.57;;
20629;SDS011;17386;43.846;25.950;2022-11-02T04:57:50;18.58;;;8.82;;
20629;SDS011;17386;43.846;25.950;2022-11-02T05:00:16;20.77;;;8.80;;
20629;SDS011;17386;43.846;25.950;2022-11-02T05:02:41;19.05;;;8.27;;
20629;SDS011;17386;43.846;25.950;2022-11-02T05:05:07;20.45;;;8.40;;
20629;SDS011;17386;43.846;25.950;2022-11-02T05:07:33;14.85;;;8.23;;
20629;SDS011;17386;43.846;25.950;2022-11-02T05:09:58;17.38;;;9.25;;
20629;SDS011;17386;43.846;25.950;2022-11-02T05:12:23;21.42;;;8.38;;
20629;SDS011;17386;43.846;25.950;2022-11-02T05:14:49;17.35;;;8.52;;
20629;SDS011;17386;43.846;25.950;2022-11-02T05:17:14;14.98;;;8.25;;
20629;SDS011;17386;43.846;25.950;2022-11-02T05:19:40;17.48;;;8.13;;
20629;SDS011;17386;43.846;25.950;2022-11-02T05:22:05;16.98;;;7.90;;
20629;SDS011;17386;43.846;25.950;2022-11-02T05:24:31;18.08;;;8.60;;
20629;SDS011;17386;43.846;25.950;2022-11-02T05:26:56;19.20;;;9.25;;
20629;SDS011;17386;43.846;25.950;2022-11-02T05:29:22;14.60;;;7.82;;
20629;SDS011;17386;43.846;25.950;2022-11-02T05:31:47;16.30;;;8.73;;
20629;SDS011;17386;43.846;25.950;2022-11-02T05:34:13;17.60;;;8.13;;
20629;SDS011;17386;43.846;25.950;2022-11-02T05:36:38;22.17;;;10.38;;
20629;SDS011;17386;43.846;25.950;2022-11-02T05:39:03;20.92;;;9.73;;
20629;SDS011;17386;43.846;25.950;2022-11-02T05:41:29;24.05;;;13.70;;
20629;SDS011;17386;43.846;25.950;2022-11-02T05:43:54;26.85;;;11.25;;
20629;SDS011;17386;43.846;25.950;2022-11-02T05:46:20;17.52;;;7.95;;
20629;SDS011;17386;43.846;25.950;2022-11-02T05:48:45;26.40;;;12.05;;
20629;SDS011;17386;43.846;25.950;2022-11-02T05:51:10;29.52;;;13.32;;
20629;SDS011;17386;43.846;25.950;2022-11-02T05:53:36;21.75;;;10.63;;
20629;SDS011;17386;43.846;25.950;2022-11-02T05:56:03;20.80;;;10.00;;
20629;SDS011;17386;43.846;25.950;2022-11-02T05:58:31;19.58;;;9.68;;
20629;SDS011;17386;43.846;25.950;2022-11-02T06:01:00;18.90;;;10.15;;
20629;SDS011;17386;43.846;25.950;2022-11-02T06:03:27;21.05;;;9.40;;
20629;SDS011;17386;43.846;25.950;2022-11-02T06:05:57;21.38;;;9.88;;
20629;SDS011;17386;43.846;25.950;2022-11-02T06:08:23;21.60;;;9.98;;
20629;SDS011;17386;43.846;25.950;2022-11-02T06:10:49;28.17;;;10.00;;
20629;SDS011;17386;43.846;25.950;2022-11-02T06:13:14;19.40;;;9.82;;
20629;SDS011;17386;43.846;25.950;2022-11-02T06:15:40;28.40;;;11.13;;
20629;SDS011;17386;43.846;25.950;2022-11-02T06:18:05;23.45;;;11.38;;
20629;SDS011;17386;43.846;25.950;2022-11-02T06:20:31;18.08;;;9.45;;
20629;SDS011;17386;43.846;25.950;2022-11-02T06:22:57;24.08;;;10.25;;
20629;SDS011;17386;43.846;25.950;2022-11-02T06:25:23;21.30;;;9.18;;
20629;SDS011;17386;43.846;25.950;2022-11-02T06:27:49;15.60;;;8.88;;
20629;SDS011;17386;43.846;25.950;2022-11-02T06:30:20;22.05;;;10.00;;
20629;SDS011;17386;43.846;25.950;2022-11-02T06:32:49;21.75;;;9.05;;
20629;SDS011;17386;43.846;25.950;2022-11-02T06:35:16;21.83;;;7.88;;
20629;SDS011;17386;43.846;25.950;2022-11-02T06:37:45;20.45;;;8.77;;
20629;SDS011;17386;43.846;25.950;2022-11-02T06:40:11;19.65;;;8.45;;
20629;SDS011;17386;43.846;25.950;2022-11-02T06:42:37;25.58;;;8.18;;
20629;SDS011;17386;43.846;25.950;2022-11-02T06:45:04;18.85;;;9.00;;
20629;SDS011;17386;43.846;25.950;2022-11-02T06:47:30;19.08;;;9.52;;
20629;SDS011;17386;43.846;25.950;2022-11-02T06:49:57;17.75;;;7.30;;
20629;SDS011;17386;43.846;25.950;2022-11-02T06:52:23;15.82;;;7.10;;
20629;SDS011;17386;43.846;25.950;2022-11-02T06:54:48;16.33;;;7.78;;
20629;SDS011;17386;43.846;25.950;2022-11-02T06:57:13;13.38;;;7.55;;
20629;SDS011;17386;43.846;25.950;2022-11-02T06:59:39;16.98;;;8.60;;
20629;SDS011;17386;43.846;25.950;2022-11-02T07:02:04;19.70;;;9.13;;
20629;SDS011;17386;43.846;25.950;2022-11-02T07:04:30;21.88;;;10.40;;
20629;SDS011;17386;43.846;25.950;2022-11-02T07:06:55;22.25;;;9.45;;
20629;SDS011;17386;43.846;25.950;2022-11-02T07:09:20;17.33;;;7.85;;
20629;SDS011;17386;43.846;25.950;2022-11-02T07:11:46;12.40;;;7.55;;
20629;SDS011;17386;43.846;25.950;2022-11-02T07:14:11;16.10;;;8.45;;
20629;SDS011;17386;43.846;25.950;2022-11-02T07:16:37;17.52;;;7.78;;
20629;SDS011;17386;43.846;25.950;2022-11-02T07:19:02;17.23;;;7.35;;
20629;SDS011;17386;43.846;25.950;2022-11-02T07:21:28;16.40;;;7.68;;
20629;SDS011;17386;43.846;25.950;2022-11-02T07:23:53;16.23;;;8.32;;
20629;SDS011;17386;43.846;25.950;2022-11-02T07:26:18;14.05;;;6.60;;
20629;SDS011;17386;43.846;25.950;2022-11-02T07:28:44;16.25;;;7.30;;
20629;SDS011;17386;43.846;25.950;2022-11-02T07:31:11;16.02;;;6.53;;
20629;SDS011;17386;43.846;25.950;2022-11-02T07:33:36;13.63;;;6.47;;
20629;SDS011;17386;43.846;25.950;2022-11-02T07:36:02;16.67;;;7.10;;
20629;SDS011;17386;43.846;25.950;2022-11-02T07:38:29;11.20;;;6.47;;
20629;SDS011;17386;43.846;25.950;2022-11-02T07:40:54;14.27;;;7.18;;
20629;SDS011;17386;43.846;25.950;2022-11-02T07:43:20;12.95;;;6.85;;
20629;SDS011;17386;43.846;25.950;2022-11-02T07:45:45;16.08;;;7.10;;
20629;SDS011;17386;43.846;25.950;2022-11-02T07:48:10;16.48;;;7.28;;
20629;SDS011;17386;43.846;25.950;2022-11-02T07:50:36;13.75;;;7.70;;
20629;SDS011;17386;43.846;25.950;2022-11-02T07:53:01;14.48;;;7.38;;
20629;SDS011;17386;43.846;25.950;2022-11-02T07:55:27;17.88;;;8.10;;
20629;SDS011;17386;43.846;25.950;2022-11-02T07:57:55;15.20;;;7.82;;
20629;SDS011;17386;43.846;25.950;2022-11-02T08:00:25;16.52;;;9.05;;
20629;SDS011;17386;43.846;25.950;2022-11-02T08:02:53;15.02;;;7.65;;
20629;SDS011;17386;43.846;25.950;2022-11-02T08:05:23;22.30;;;9.18;;
20629;SDS011;17386;43.846;25.950;2022-11-02T08:07:58;17.60;;;9.68;;
20629;SDS011;17386;43.846;25.950;2022-11-02T08:10:25;16.85;;;8.88;;
20629;SDS011;17386;43.846;25.950;2022-11-02T08:12:51;20.55;;;9.38;;
20629;SDS011;17386;43.846;25.950;2022-11-02T08:15:17;22.95;;;9.73;;
20629;SDS011;17386;43.846;25.950;2022-11-02T08:17:42;25.40;;;9.95;;
20629;SDS011;17386;43.846;25.950;2022-11-02T08:20:08;17.45;;;9.30;;
20629;SDS011;17386;43.846;25.950;2022-11-02T08:22:38;20.67;;;10.35;;
20629;SDS011;17386;43.846;25.950;2022-11-02T08:25:04;19.60;;;9.52;;
20629;SDS011;17386;43.846;25.950;2022-11-02T08:27:30;21.67;;;10.88;;
20629;SDS011;17386;43.846;25.950;2022-11-02T08:29:56;23.60;;;10.68;;
20629;SDS011;17386;43.846;25.950;2022-11-02T08:32:21;23.05;;;10.63;;
20629;SDS011;17386;43.846;25.950;2022-11-02T08:34:47;19.85;;;11.63;;
20629;SDS011;17386;43.846;25.950;2022-11-02T08:37:12;20.90;;;10.77;;
20629;SDS011;17386;43.846;25.950;2022-11-02T08:39:37;23.23;;;11.32;;
20629;SDS011;17386;43.846;25.950;2022-11-02T08:42:03;45.55;;;13.32;;
20629;SDS011;17386;43.846;25.950;2022-11-02T08:44:28;25.42;;;12.30;;
20629;SDS011;17386;43.846;25.950;2022-11-02T08:46:54;22.42;;;11.43;;
20629;SDS011;17386;43.846;25.950;2022-11-02T08:49:19;23.90;;;12.40;;
20629;SDS011;17386;43.846;25.950;2022-11-02T08:51:45;25.25;;;12.70;;
20629;SDS011;17386;43.846;25.950;2022-11-02T08:54:11;24.42;;;12.40;;
20629;SDS011;17386;43.846;25.950;2022-11-02T08:56:37;26.13;;;12.40;;
20629;SDS011;17386;43.846;25.950;2022-11-02T08:59:03;25.40;;;12.73;;
20629;SDS011;17386;43.846;25.950;2022-11-02T09:01:28;18.95;;;11.93;;
20629;SDS011;17386;43.846;25.950;2022-11-02T09:03:54;20.67;;;11.93;;
20629;SDS011;17386;43.846;25.950;2022-11-02T09:06:19;24.80;;;12.98;;
20629;SDS011;17386;43.846;25.950;2022-11-02T09:08:45;21.48;;;12.18;;
20629;SDS011;17386;43.846;25.950;2022-11-02T09:11:10;21.05;;;11.73;;
20629;SDS011;17386;43.846;25.950;2022-11-02T09:13:36;27.98;;;11.40;;
20629;SDS011;17386;43.846;25.950;2022-11-02T09:16:02;24.90;;;12.38;;
20629;SDS011;17386;43.846;25.950;2022-11-02T09:18:28;18.73;;;11.50;;
20629;SDS011;17386;43.846;25.950;2022-11-02T09:20:54;19.30;;;10.77;;
20629;SDS011;17386;43.846;25.950;2022-11-02T09:23:20;22.42;;;11.25;;
20629;SDS011;17386;43.846;25.950;2022-11-02T09:25:46;23.52;;;11.32;;
20629;SDS011;17386;43.846;25.950;2022-11-02T09:28:12;18.33;;;10.82;;
20629;SDS011;17386;43.846;25.950;2022-11-02T09:30:39;24.52;;;10.70;;
20629;SDS011;17386;43.846;25.950;2022-11-02T09:33:05;22.08;;;10.80;;
20629;SDS011;17386;43.846;25.950;2022-11-02T09:35:32;24.58;;;10.20;;
20629;SDS011;17386;43.846;25.950;2022-11-02T09:37:59;22.75;;;9.98;;
20629;SDS011;17386;43.846;25.950;2022-11-02T09:40:25;22.20;;;10.65;;
20629;SDS011;17386;43.846;25.950;2022-11-02T09:45:21;22.30;;;10.82;;
20629;SDS011;17386;43.846;25.950;2022-11-02T09:47:48;16.63;;;10.82;;
20629;SDS011;17386;43.846;25.950;2022-11-02T09:50:19;20.75;;;10.48;;
20629;SDS011;17386;43.846;25.950;2022-11-02T09:52:52;23.20;;;11.05;;
20629;SDS011;17386;43.846;25.950;2022-11-02T09:55:24;19.63;;;10.68;;
20629;SDS011;17386;43.846;25.950;2022-11-02T09:57:56;23.02;;;11.02;;
20629;SDS011;17386;43.846;25.950;2022-11-02T10:00:28;19.40;;;10.70;;
20629;SDS011;17386;43.846;25.950;2022-11-02T10:03:01;20.52;;;11.40;;
20629;SDS011;17386;43.846;25.950;2022-11-02T10:05:44;20.60;;;10.23;;
20629;SDS011;17386;43.846;25.950;2022-11-02T10:16:52;24.10;;;10.70;;
20629;SDS011;17386;43.846;25.950;2022-11-02T10:19:23;16.77;;;9.77;;
20629;SDS011;17386;43.846;25.950;2022-11-02T10:21:50;16.88;;;10.20;;
20629;SDS011;17386;43.846;25.950;2022-11-02T10:24:24;22.77;;;10.32;;
20629;SDS011;17386;43.846;25.950;2022-11-02T10:26:58;20.55;;;10.20;;
20629;SDS011;17386;43.846;25.950;2022-11-02T10:32:27;18.73;;;9.60;;
20629;SDS011;17386;43.846;25.950;2022-11-02T10:34:55;18.35;;;9.95;;
20629;SDS011;17386;43.846;25.950;2022-11-02T10:42:30;19.10;;;10.07;;
20629;SDS011;17386;43.846;25.950;2022-11-02T10:45:28;22.63;;;9.63;;
20629;SDS011;17386;43.846;25.950;2022-11-02T10:48:14;20.02;;;9.80;;
20629;SDS011;17386;43.846;25.950;2022-11-02T10:53:33;16.45;;;10.27;;
20629;SDS011;17386;43.846;25.950;2022-11-02T10:56:01;18.17;;;11.07;;
20629;SDS011;17386;43.846;25.950;2022-11-02T10:58:35;22.38;;;11.32;;
20629;SDS011;17386;43.846;25.950;2022-11-02T11:01:05;20.77;;;11.63;;
20629;SDS011;17386;43.846;25.950;2022-11-02T11:03:32;20.25;;;10.82;;
20629;SDS011;17386;43.846;25.950;2022-11-02T11:06:01;19.27;;;10.98;;
20629;SDS011;17386;43.846;25.950;2022-11-02T11:08:38;19.63;;;10.82;;
20629;SDS011;17386;43.846;25.950;2022-11-02T11:11:23;23.58;;;12.25;;
20629;SDS011;17386;43.846;25.950;2022-11-02T11:17:13;25.33;;;14.40;;
20629;SDS011;17386;43.846;25.950;2022-11-02T11:19:35;25.10;;;13.93;;
20629;SDS011;17386;43.846;25.950;2022-11-02T11:22:19;22.15;;;12.45;;
20629;SDS011;17386;43.846;25.950;2022-11-02T11:24:48;23.92;;;12.10;;
20629;SDS011;17386;43.846;25.950;2022-11-02T11:27:15;19.73;;;11.50;;
20629;SDS011;17386;43.846;25.950;2022-11-02T11:30:00;20.38;;;10.52;;
20629;SDS011;17386;43.846;25.950;2022-11-02T11:32:28;17.08;;;11.25;;
20629;SDS011;17386;43.846;25.950;2022-11-02T11:35:04;21.90;;;10.90;;
20629;SDS011;17386;43.846;25.950;2022-11-02T11:37:46;22.45;;;11.88;;
20629;SDS011;17386;43.846;25.950;2022-11-02T11:40:17;19.13;;;10.48;;
20629;SDS011;17386;43.846;25.950;2022-11-02T11:42:45;21.38;;;10.10;;
20629;SDS011;17386;43.846;25.950;2022-11-02T11:45:21;19.60;;;10.77;;
20629;SDS011;17386;43.846;25.950;2022-11-02T11:47:52;21.90;;;10.23;;
20629;SDS011;17386;43.846;25.950;2022-11-02T11:50:20;16.63;;;9.48;;
20629;SDS011;17386;43.846;25.950;2022-11-02T11:52:46;19.77;;;9.90;;
20629;SDS011;17386;43.846;25.950;2022-11-02T11:55:18;17.45;;;8.90;;
20629;SDS011;17386;43.846;25.950;2022-11-02T11:57:46;20.00;;;10.20;;
20629;SDS011;17386;43.846;25.950;2022-11-02T12:00:29;19.10;;;9.38;;
20629;SDS011;17386;43.846;25.950;2022-11-02T12:03:04;17.17;;;9.32;;
20629;SDS011;17386;43.846;25.950;2022-11-02T12:05:37;17.65;;;9.10;;
20629;SDS011;17386;43.846;25.950;2022-11-02T12:11:09;19.27;;;9.77;;
20629;SDS011;17386;43.846;25.950;2022-11-02T12:34:05;19.02;;;7.05;;
20629;SDS011;17386;43.846;25.950;2022-11-02T12:39:07;19.70;;;8.68;;
20629;SDS011;17386;43.846;25.950;2022-11-02T12:41:49;13.75;;;7.60;;
20629;SDS011;17386;43.846;25.950;2022-11-02T12:55:11;15.52;;;7.72;;
20629;SDS011;17386;43.846;25.950;2022-11-02T12:57:41;17.70;;;7.90;;
20629;SDS011;17386;43.846;25.950;2022-11-02T13:00:14;13.85;;;7.22;;
20629;SDS011;17386;43.846;25.950;2022-11-02T13:02:48;14.35;;;8.20;;
20629;SDS011;17386;43.846;25.950;2022-11-02T13:05:37;18.77;;;8.45;;
20629;SDS011;17386;43.846;25.950;2022-11-02T13:08:15;12.90;;;7.95;;
20629;SDS011;17386;43.846;25.950;2022-11-02T13:13:27;14.95;;;7.82;;
20629;SDS011;17386;43.846;25.950;2022-11-02T13:15:57;19.25;;;9.27;;
20629;SDS011;17386;43.846;25.950;2022-11-02T13:18:32;20.88;;;8.15;;
20629;SDS011;17386;43.846;25.950;2022-11-02T13:21:26;18.38;;;7.82;;
20629;SDS011;17386;43.846;25.950;2022-11-02T13:23:57;18.50;;;8.73;;
20629;SDS011;17386;43.846;25.950;2022-11-02T13:31:40;15.07;;;7.55;;
20629;SDS011;17386;43.846;25.950;2022-11-02T13:34:17;17.42;;;8.10;;
20629;SDS011;17386;43.846;25.950;2022-11-02T13:36:51;18.38;;;9.23;;
20629;SDS011;17386;43.846;25.950;2022-11-02T13:39:18;16.75;;;7.80;;
20629;SDS011;17386;43.846;25.950;2022-11-02T13:42:05;16.63;;;8.63;;
20629;SDS011;17386;43.846;25.950;2022-11-02T13:49:59;18.95;;;9.38;;
20629;SDS011;17386;43.846;25.950;2022-11-02T13:55:00;18.05;;;7.90;;
20629;SDS011;17386;43.846;25.950;2022-11-02T13:57:34;16.48;;;7.75;;
20629;SDS011;17386;43.846;25.950;2022-11-02T14:00:05;15.07;;;7.95;;
20629;SDS011;17386;43.846;25.950;2022-11-02T14:06:10;15.15;;;7.10;;
20629;SDS011;17386;43.846;25.950;2022-11-02T14:08:41;15.30;;;6.88;;
20629;SDS011;17386;43.846;25.950;2022-11-02T14:26:59;15.52;;;5.85;;
20629;SDS011;17386;43.846;25.950;2022-11-02T14:47:57;15.50;;;5.85;;
20629;SDS011;17386;43.846;25.950;2022-11-02T14:50:24;13.35;;;5.90;;
20629;SDS011;17386;43.846;25.950;2022-11-02T14:52:58;13.68;;;5.78;;
20629;SDS011;17386;43.846;25.950;2022-11-02T14:55:32;13.75;;;5.05;;
20629;SDS011;17386;43.846;25.950;2022-11-02T14:58:01;11.00;;;5.57;;
20629;SDS011;17386;43.846;25.950;2022-11-02T15:00:36;14.38;;;4.90;;
20629;SDS011;17386;43.846;25.950;2022-11-02T15:06:00;15.77;;;6.45;;
20629;SDS011;17386;43.846;25.950;2022-11-02T15:08:27;13.90;;;5.93;;
20629;SDS011;17386;43.846;25.950;2022-11-02T15:10:56;22.23;;;6.43;;
20629;SDS011;17386;43.846;25.950;2022-11-02T15:13:32;13.75;;;5.68;;
20629;SDS011;17386;43.846;25.950;2022-11-02T15:23:45;14.60;;;6.22;;
20629;SDS011;17386;43.846;25.950;2022-11-02T15:26:18;15.98;;;5.43;;
20629;SDS011;17386;43.846;25.950;2022-11-02T15:28:47;12.02;;;4.80;;
20629;SDS011;17386;43.846;25.950;2022-11-02T15:33:45;14.13;;;6.30;;
20629;SDS011;17386;43.846;25.950;2022-11-02T15:36:14;19.35;;;7.15;;
20629;SDS011;17386;43.846;25.950;2022-11-02T15:38:45;15.52;;;7.53;;
20629;SDS011;17386;43.846;25.950;2022-11-02T15:41:22;18.00;;;7.60;;
20629;SDS011;17386;43.846;25.950;2022-11-02T15:57:57;14.80;;;6.80;;
20629;SDS011;17386;43.846;25.950;2022-11-02T16:00:40;18.98;;;6.50;;
20629;SDS011;17386;43.846;25.950;2022-11-02T16:03:06;19.33;;;7.85;;
20629;SDS011;17386;43.846;25.950;2022-11-02T16:08:02;15.15;;;7.00;;
20629;SDS011;17386;43.846;25.950;2022-11-02T16:10:28;15.70;;;6.38;;
20629;SDS011;17386;43.846;25.950;2022-11-02T16:15:26;17.00;;;5.45;;
20629;SDS011;17386;43.846;25.950;2022-11-02T16:20:24;13.35;;;4.75;;
20629;SDS011;17386;43.846;25.950;2022-11-02T16:22:59;14.85;;;6.53;;
20629;SDS011;17386;43.846;25.950;2022-11-02T16:28:21;15.38;;;5.32;;
20629;SDS011;17386;43.846;25.950;2022-11-02T16:36:01;14.27;;;5.68;;
20629;SDS011;17386;43.846;25.950;2022-11-02T16:38:27;12.85;;;5.32;;
20629;SDS011;17386;43.846;25.950;2022-11-02T16:40:53;19.92;;;6.30;;
20629;SDS011;17386;43.846;25.950;2022-11-02T16:43:20;15.27;;;5.47;;
20629;SDS011;17386;43.846;25.950;2022-11-02T16:45:47;17.38;;;6.10;;
20629;SDS011;17386;43.846;25.950;2022-11-02T16:48:19;16.25;;;6.50;;
20629;SDS011;17386;43.846;25.950;2022-11-02T16:51:02;16.15;;;6.53;;
20629;SDS011;17386;43.846;25.950;2022-11-02T16:53:41;16.00;;;6.85;;
20629;SDS011;17386;43.846;25.950;2022-11-02T16:56:23;20.25;;;8.38;;
20629;SDS011;17386;43.846;25.950;2022-11-02T16:59:00;15.68;;;5.97;;
20629;SDS011;17386;43.846;25.950;2022-11-02T17:01:28;14.55;;;6.43;;
20629;SDS011;17386;43.846;25.950;2022-11-02T17:04:12;20.45;;;7.18;;
20629;SDS011;17386;43.846;25.950;2022-11-02T17:06:42;15.00;;;6.50;;
20629;SDS011;17386;43.846;25.950;2022-11-02T17:09:19;22.85;;;7.28;;
20629;SDS011;17386;43.846;25.950;2022-11-02T17:11:44;19.05;;;6.25;;
20629;SDS011;17386;43.846;25.950;2022-11-02T17:14:10;18.05;;;6.60;;
20629;SDS011;17386;43.846;25.950;2022-11-02T17:16:36;18.52;;;6.53;;
20629;SDS011;17386;43.846;25.950;2022-11-02T17:24:48;15.38;;;5.97;;
20629;SDS011;17386;43.846;25.950;2022-11-02T17:27:26;10.88;;;5.07;;
20629;SDS011;17386;43.846;25.950;2022-11-02T17:29:57;15.50;;;7.28;;
20629;SDS011;17386;43.846;25.950;2022-11-02T17:32:23;14.70;;;5.72;;
20629;SDS011;17386;43.846;25.950;2022-11-02T17:34:53;15.00;;;6.45;;
20629;SDS011;17386;43.846;25.950;2022-11-02T17:37:23;12.63;;;5.53;;
20629;SDS011;17386;43.846;25.950;2022-11-02T17:39:51;16.40;;;5.03;;
20629;SDS011;17386;43.846;25.950;2022-11-02T17:42:18;11.93;;;5.30;;
20629;SDS011;17386;43.846;25.950;2022-11-02T17:48:04;17.63;;;5.07;;
20629;SDS011;17386;43.846;25.950;2022-11-02T17:50:32;13.88;;;5.47;;